createdAt,value
2022-07-28T00:00:40.000Z,283.65
2022-07-28T00:02:46.000Z,283.84
2022-07-28T00:04:13.000Z,283.9
2022-07-28T00:06:20.000Z,283.71
2022-07-28T00:07:46.000Z,283.65
2022-07-28T00:09:52.000Z,283.65
2022-07-28T00:11:25.000Z,283.65
2022-07-28T00:13:31.000Z,283.77
2022-07-28T00:14:57.000Z,283.71
2022-07-28T00:17:03.000Z,283.84
2022-07-28T00:18:30.000Z,283.9
2022-07-28T00:20:36.000Z,283.71
2022-07-28T00:23:27.000Z,283.9
2022-07-28T00:25:03.000Z,283.77
2022-07-28T00:27:09.000Z,283.77
2022-07-28T00:28:36.000Z,283.71
2022-07-28T00:30:42.000Z,283.65
2022-07-28T00:32:09.000Z,283.59
2022-07-28T00:34:15.000Z,283.59
2022-07-28T00:35:42.000Z,283.59
2022-07-28T00:37:52.000Z,283.71
2022-07-28T00:39:19.000Z,283.65
2022-07-28T00:41:26.000Z,283.65
2022-07-28T00:42:52.000Z,283.46
2022-07-28T00:44:58.000Z,283.65
2022-07-28T00:46:25.000Z,283.46
2022-07-28T00:48:31.000Z,283.34
2022-07-28T00:49:57.000Z,283.27
2022-07-28T00:52:04.000Z,283.46
2022-07-28T00:53:30.000Z,283.09
2022-07-28T00:55:36.000Z,283.15
2022-07-28T00:57:30.000Z,282.96
2022-07-28T00:59:37.000Z,283.09
2022-07-28T01:02:28.000Z,283.15
2022-07-28T01:03:55.000Z,283.27
2022-07-28T01:06:01.000Z,283.27
2022-07-28T01:07:27.000Z,283.34
2022-07-28T01:09:33.000Z,283.21
2022-07-28T01:11:00.000Z,283.27
2022-07-28T01:13:06.000Z,283.34
2022-07-28T01:14:32.000Z,283.21
2022-07-28T01:16:38.000Z,283.27
2022-07-28T01:18:05.000Z,283.27
2022-07-28T01:20:11.000Z,283.21
2022-07-28T01:21:38.000Z,283.09
2022-07-28T01:23:44.000Z,282.9
2022-07-28T01:25:10.000Z,282.9
2022-07-28T01:27:16.000Z,282.96
2022-07-28T01:28:43.000Z,282.96
2022-07-28T01:30:49.000Z,283.02
2022-07-28T01:32:16.000Z,283.09
2022-07-28T01:34:22.000Z,282.96
2022-07-28T01:35:48.000Z,283.15
2022-07-28T01:37:54.000Z,283.27
2022-07-28T01:40:46.000Z,283.27
2022-07-28T01:42:14.000Z,283.27
2022-07-28T01:44:21.000Z,283.09
2022-07-28T01:45:49.000Z,283.15
2022-07-28T01:47:55.000Z,283.27
2022-07-28T01:49:22.000Z,283.15
2022-07-28T01:51:28.000Z,283.15
2022-07-28T01:52:55.000Z,283.09
2022-07-28T01:55:01.000Z,283.02
2022-07-28T01:56:27.000Z,283.02
2022-07-28T01:58:33.000Z,283.02
2022-07-28T02:00:00.000Z,283.02
2022-07-28T02:02:06.000Z,282.84
2022-07-28T02:03:33.000Z,282.84
2022-07-28T02:05:39.000Z,282.84
2022-07-28T02:07:05.000Z,282.96
2022-07-28T02:09:11.000Z,283.02
2022-07-28T02:10:38.000Z,282.77
2022-07-28T02:12:44.000Z,282.77
2022-07-28T02:14:11.000Z,282.9
2022-07-28T02:16:17.000Z,282.59
2022-07-28T02:19:08.000Z,282.71
2022-07-28T02:20:37.000Z,282.59
2022-07-28T02:22:43.000Z,282.65
2022-07-28T02:24:16.000Z,282.65
2022-07-28T02:26:22.000Z,282.59
2022-07-28T02:27:49.000Z,282.59
2022-07-28T02:29:55.000Z,282.27
2022-07-28T02:31:21.000Z,282.46
2022-07-28T02:33:28.000Z,282.65
2022-07-28T02:35:24.000Z,282.84
2022-07-28T02:37:36.000Z,282.77
2022-07-28T02:39:02.000Z,282.71
2022-07-28T02:41:08.000Z,282.71
2022-07-28T02:42:35.000Z,282.65
2022-07-28T02:44:41.000Z,282.59
2022-07-28T02:46:07.000Z,282.52
2022-07-28T02:48:14.000Z,282.59
2022-07-28T02:49:40.000Z,282.52
2022-07-28T02:51:46.000Z,282.27
2022-07-28T02:53:13.000Z,282.21
2022-07-28T02:55:20.000Z,282.4
2022-07-28T02:58:11.000Z,282.4
2022-07-28T02:59:38.000Z,282.34
2022-07-28T03:01:44.000Z,282.27
2022-07-28T03:03:10.000Z,282.09
2022-07-28T03:05:16.000Z,282.46
2022-07-28T03:06:43.000Z,282.4
2022-07-28T03:08:49.000Z,282.09
2022-07-28T03:10:16.000Z,282.15
2022-07-28T03:12:38.000Z,282.15
2022-07-28T03:14:04.000Z,281.9
2022-07-28T03:16:11.000Z,282.02
2022-07-28T03:17:37.000Z,281.84
2022-07-28T03:19:43.000Z,281.77
2022-07-28T03:21:10.000Z,281.71
2022-07-28T03:23:16.000Z,281.9
2022-07-28T03:24:42.000Z,282.02
2022-07-28T03:26:48.000Z,282.27
2022-07-28T03:28:15.000Z,282.15
2022-07-28T03:30:21.000Z,281.9
2022-07-28T03:31:48.000Z,282.21
2022-07-28T03:33:54.000Z,282.4
2022-07-28T03:36:45.000Z,282.46
2022-07-28T03:38:12.000Z,282.34
2022-07-28T03:40:21.000Z,282.52
2022-07-28T03:41:48.000Z,282.52
2022-07-28T03:43:54.000Z,282.15
2022-07-28T03:45:20.000Z,282.27
2022-07-28T03:47:26.000Z,282.4
2022-07-28T03:48:53.000Z,282.27
2022-07-28T03:50:59.000Z,282.34
2022-07-28T03:52:26.000Z,282.34
2022-07-28T03:54:32.000Z,282.21
2022-07-28T03:55:58.000Z,282.27
2022-07-28T03:58:04.000Z,282.4
2022-07-28T03:59:32.000Z,282.09
2022-07-28T04:01:38.000Z,282.21
2022-07-28T04:03:04.000Z,282.27
2022-07-28T04:05:47.000Z,282.21
2022-07-28T04:07:14.000Z,282.27
2022-07-28T04:09:20.000Z,282.52
2022-07-28T04:10:46.000Z,282.59
2022-07-28T04:12:52.000Z,282.71
2022-07-28T04:15:44.000Z,282.77
2022-07-28T04:17:10.000Z,282.65
2022-07-28T04:19:16.000Z,282.21
2022-07-28T04:20:43.000Z,282.21
2022-07-28T04:22:49.000Z,282.4
2022-07-28T04:24:15.000Z,282.46
2022-07-28T04:26:22.000Z,282.52
2022-07-28T04:27:48.000Z,282.46
2022-07-28T04:29:55.000Z,282.52
2022-07-28T04:31:21.000Z,282.52
2022-07-28T04:33:27.000Z,282.46
2022-07-28T04:34:54.000Z,282.4
2022-07-28T04:37:00.000Z,282.46
2022-07-28T04:38:27.000Z,282.46
2022-07-28T04:40:33.000Z,282.59
2022-07-28T04:41:59.000Z,282.59
2022-07-28T04:44:05.000Z,282.59
2022-07-28T04:45:32.000Z,282.65
2022-07-28T04:47:38.000Z,282.9
2022-07-28T04:49:05.000Z,282.84
2022-07-28T04:51:11.000Z,282.77
2022-07-28T04:54:02.000Z,283.02
2022-07-28T04:55:28.000Z,283.27
2022-07-28T04:57:36.000Z,283.46
2022-07-28T04:59:03.000Z,283.52
2022-07-28T05:01:09.000Z,283.96
2022-07-28T05:02:36.000Z,284.27
2022-07-28T05:04:42.000Z,284.15
2022-07-28T05:06:09.000Z,284.21
2022-07-28T05:08:15.000Z,284.21
2022-07-28T05:09:41.000Z,284.21
2022-07-28T05:11:47.000Z,284.27
2022-07-28T05:13:14.000Z,284.21
2022-07-28T05:15:20.000Z,284.34
2022-07-28T05:16:47.000Z,284.46
2022-07-28T05:18:53.000Z,284.52
2022-07-28T05:20:20.000Z,284.59
2022-07-28T05:22:26.000Z,284.59
2022-07-28T05:23:52.000Z,284.65
2022-07-28T05:25:58.000Z,284.65
2022-07-28T05:27:25.000Z,284.65
2022-07-28T05:29:31.000Z,284.71
2022-07-28T05:32:36.000Z,284.71
2022-07-28T05:34:03.000Z,284.77
2022-07-28T05:36:09.000Z,284.9
2022-07-28T05:37:35.000Z,284.96
2022-07-28T05:39:42.000Z,285.09
2022-07-28T05:41:08.000Z,285.09
2022-07-28T05:43:14.000Z,285.15
2022-07-28T05:44:41.000Z,285.27
2022-07-28T05:46:47.000Z,285.4
2022-07-28T05:48:13.000Z,285.52
2022-07-28T05:50:19.000Z,285.46
2022-07-28T05:51:46.000Z,285.52
2022-07-28T05:53:52.000Z,285.65
2022-07-28T05:55:18.000Z,285.77
2022-07-28T05:57:24.000Z,285.96
2022-07-28T05:58:51.000Z,286.15
2022-07-28T06:00:57.000Z,286.27
2022-07-28T06:02:24.000Z,286.34
2022-07-28T06:04:30.000Z,286.46
2022-07-28T06:05:57.000Z,286.46
2022-07-28T06:08:19.000Z,286.46
2022-07-28T06:11:10.000Z,286.4
2022-07-28T06:12:47.000Z,286.52
2022-07-28T06:14:53.000Z,286.52
2022-07-28T06:16:19.000Z,286.59
2022-07-28T06:18:26.000Z,286.59
2022-07-28T06:19:52.000Z,286.65
2022-07-28T06:21:58.000Z,286.71
2022-07-28T06:23:25.000Z,286.84
2022-07-28T06:25:31.000Z,286.9
2022-07-28T06:26:57.000Z,286.9
2022-07-28T06:29:04.000Z,286.9
2022-07-28T06:30:30.000Z,286.96
2022-07-28T06:32:36.000Z,287.02
2022-07-28T06:34:03.000Z,287.09
2022-07-28T06:36:09.000Z,286.96
2022-07-28T06:37:35.000Z,287.02
2022-07-28T06:39:42.000Z,287.21
2022-07-28T06:41:08.000Z,287.21
2022-07-28T06:43:14.000Z,287.4
2022-07-28T06:44:41.000Z,287.52
2022-07-28T06:47:03.000Z,287.77
2022-07-28T06:49:54.000Z,288.02
2022-07-28T06:51:21.000Z,288.09
2022-07-28T06:53:27.000Z,288.21
2022-07-28T06:54:59.000Z,288.27
2022-07-28T06:57:06.000Z,288.27
2022-07-28T06:58:34.000Z,288.15
2022-07-28T07:00:40.000Z,288.15
2022-07-28T07:02:07.000Z,288.21
2022-07-28T07:04:13.000Z,288.21
2022-07-28T07:05:40.000Z,288.09
2022-07-28T07:07:46.000Z,288.09
2022-07-28T07:09:13.000Z,288.21
2022-07-28T07:11:19.000Z,288.34
2022-07-28T07:12:45.000Z,288.4
2022-07-28T07:14:51.000Z,288.52
2022-07-28T07:16:18.000Z,288.65
2022-07-28T07:18:24.000Z,288.71
2022-07-28T07:19:51.000Z,288.84
2022-07-28T07:21:57.000Z,288.96
2022-07-28T07:23:23.000Z,288.96
2022-07-28T07:25:30.000Z,289.09
2022-07-28T07:28:21.000Z,289.21
2022-07-28T07:29:48.000Z,289.21
2022-07-28T07:31:54.000Z,289.27
2022-07-28T07:33:20.000Z,289.4
2022-07-28T07:35:26.000Z,289.4
2022-07-28T07:36:53.000Z,289.46
2022-07-28T07:38:59.000Z,289.52
2022-07-28T07:40:26.000Z,289.59
2022-07-28T07:42:32.000Z,289.65
2022-07-28T07:43:59.000Z,289.84
2022-07-28T07:46:05.000Z,289.9
2022-07-28T07:47:31.000Z,290.09
2022-07-28T07:49:37.000Z,290.15
2022-07-28T07:51:10.000Z,290.15
2022-07-28T07:53:19.000Z,290.34
2022-07-28T07:54:46.000Z,290.4
2022-07-28T07:56:52.000Z,290.46
2022-07-28T07:58:19.000Z,290.52
2022-07-28T08:00:25.000Z,290.59
2022-07-28T08:01:53.000Z,290.52
2022-07-28T08:04:00.000Z,290.71
2022-07-28T08:06:52.000Z,290.77
2022-07-28T08:08:19.000Z,290.96
2022-07-28T08:10:25.000Z,290.96
2022-07-28T08:11:52.000Z,291.09
2022-07-28T08:13:58.000Z,291.15
2022-07-28T08:15:24.000Z,291.15
2022-07-28T08:17:30.000Z,291.21
2022-07-28T08:18:57.000Z,291.27
2022-07-28T08:21:03.000Z,291.34
2022-07-28T08:22:29.000Z,291.46
2022-07-28T08:24:35.000Z,291.52
2022-07-28T08:26:02.000Z,291.59
2022-07-28T08:28:08.000Z,291.71
2022-07-28T08:29:35.000Z,291.77
2022-07-28T08:31:41.000Z,291.9
2022-07-28T08:33:08.000Z,292.02
2022-07-28T08:35:14.000Z,292.15
2022-07-28T08:36:58.000Z,292.15
2022-07-28T08:39:04.000Z,292.34
2022-07-28T08:40:31.000Z,292.4
2022-07-28T08:42:37.000Z,292.52
2022-07-28T08:45:28.000Z,292.71
2022-07-28T08:47:01.000Z,292.65
2022-07-28T08:49:07.000Z,292.59
2022-07-28T08:50:34.000Z,292.71
2022-07-28T08:52:40.000Z,292.71
2022-07-28T08:54:07.000Z,292.9
2022-07-28T08:56:13.000Z,293.09
2022-07-28T08:57:39.000Z,293.15
2022-07-28T08:59:45.000Z,293.34
2022-07-28T09:01:12.000Z,293.27
2022-07-28T09:03:18.000Z,293.34
2022-07-28T09:04:45.000Z,293.46
2022-07-28T09:06:51.000Z,293.59
2022-07-28T09:08:17.000Z,293.59
2022-07-28T09:10:24.000Z,293.65
2022-07-28T09:11:50.000Z,293.71
2022-07-28T09:13:56.000Z,293.77
2022-07-28T09:15:23.000Z,293.84
2022-07-28T09:17:29.000Z,293.9
2022-07-28T09:18:55.000Z,294.09
2022-07-28T09:21:02.000Z,294.21
2022-07-28T09:23:53.000Z,294.09
2022-07-28T09:25:19.000Z,294.21
2022-07-28T09:27:25.000Z,294.4
2022-07-28T09:28:52.000Z,294.52
2022-07-28T09:30:58.000Z,294.84
2022-07-28T09:32:25.000Z,294.71
2022-07-28T09:34:31.000Z,294.65
2022-07-28T09:35:58.000Z,294.84
2022-07-28T09:38:06.000Z,294.96
2022-07-28T09:39:32.000Z,295.02
2022-07-28T09:41:39.000Z,294.77
2022-07-28T09:43:05.000Z,294.9
2022-07-28T09:45:11.000Z,295.02
2022-07-28T09:46:48.000Z,294.96
2022-07-28T09:48:55.000Z,295.09
2022-07-28T09:50:22.000Z,295.09
2022-07-28T09:52:28.000Z,295.27
2022-07-28T09:53:54.000Z,295.27
2022-07-28T09:56:00.000Z,295.34
2022-07-28T09:57:27.000Z,295.46
2022-07-28T09:59:35.000Z,295.65
2022-07-28T10:02:27.000Z,295.77
2022-07-28T10:03:55.000Z,295.77
2022-07-28T10:06:06.000Z,295.9
2022-07-28T10:07:33.000Z,295.9
2022-07-28T10:09:39.000Z,295.84
2022-07-28T10:11:05.000Z,295.9
2022-07-28T10:13:11.000Z,296.02
2022-07-28T10:14:38.000Z,296.15
2022-07-28T10:16:44.000Z,296.21
2022-07-28T10:18:11.000Z,296.02
2022-07-28T10:20:17.000Z,296.02
2022-07-28T10:21:44.000Z,296.09
2022-07-28T10:23:50.000Z,296.21
2022-07-28T10:25:17.000Z,296.34
2022-07-28T10:27:23.000Z,296.4
2022-07-28T10:28:49.000Z,296.4
2022-07-28T10:30:56.000Z,296.34
2022-07-28T10:32:22.000Z,296.21
2022-07-28T10:34:28.000Z,296.4
2022-07-28T10:35:55.000Z,296.59
2022-07-28T10:38:01.000Z,296.65
2022-07-28T10:40:53.000Z,296.59
2022-07-28T10:42:19.000Z,296.77
2022-07-28T10:44:25.000Z,296.84
2022-07-28T10:45:52.000Z,296.96
2022-07-28T10:48:11.000Z,296.96
2022-07-28T10:49:37.000Z,296.96
2022-07-28T10:51:46.000Z,297.02
2022-07-28T10:53:33.000Z,296.77
2022-07-28T10:55:41.000Z,297.15
2022-07-28T10:57:08.000Z,297.27
2022-07-28T10:59:14.000Z,297.4
2022-07-28T11:00:43.000Z,297.46
2022-07-28T11:03:00.000Z,297.46
2022-07-28T11:04:38.000Z,297.52
2022-07-28T11:06:45.000Z,297.34
2022-07-28T11:08:12.000Z,297.4
2022-07-28T11:10:18.000Z,297.65
2022-07-28T11:11:44.000Z,297.46
2022-07-28T11:13:51.000Z,297.46
2022-07-28T11:15:17.000Z,297.71
2022-07-28T11:17:24.000Z,297.71
2022-07-28T11:20:22.000Z,298.02
2022-07-28T11:21:54.000Z,298.15
2022-07-28T11:24:00.000Z,298.15
2022-07-28T11:25:26.000Z,298.02
2022-07-28T11:27:32.000Z,298.34
2022-07-28T11:28:59.000Z,298.27
2022-07-28T11:31:05.000Z,298.09
2022-07-28T11:32:32.000Z,298.21
2022-07-28T11:34:48.000Z,298.27
2022-07-28T11:36:14.000Z,298.02
2022-07-28T11:38:21.000Z,298.27
2022-07-28T11:39:47.000Z,298.4
2022-07-28T11:41:54.000Z,298.59
2022-07-28T11:43:21.000Z,298.46
2022-07-28T11:45:42.000Z,298.46
2022-07-28T11:47:20.000Z,298.4
2022-07-28T11:49:26.000Z,298.52
2022-07-28T11:50:52.000Z,298.59
2022-07-28T11:52:59.000Z,298.52
2022-07-28T11:54:25.000Z,298.77
2022-07-28T11:56:31.000Z,298.96
2022-07-28T11:59:23.000Z,299.15
2022-07-28T12:01:01.000Z,299.09
2022-07-28T12:03:07.000Z,299.15
2022-07-28T12:04:34.000Z,299.15
2022-07-28T12:06:40.000Z,299.09
2022-07-28T12:08:07.000Z,299.15
2022-07-28T12:10:13.000Z,299.09
2022-07-28T12:12:08.000Z,299.27
2022-07-28T12:14:15.000Z,299.27
2022-07-28T12:15:42.000Z,299.27
2022-07-28T12:17:48.000Z,299.52
2022-07-28T12:19:15.000Z,299.71
2022-07-28T12:21:21.000Z,299.9
2022-07-28T12:22:51.000Z,299.96
2022-07-28T12:24:58.000Z,299.96
2022-07-28T12:26:24.000Z,299.96
2022-07-28T12:28:30.000Z,299.9
2022-07-28T12:29:57.000Z,299.9
2022-07-28T12:32:03.000Z,299.77
2022-07-28T12:33:30.000Z,299.46
2022-07-28T12:35:36.000Z,299.77
2022-07-28T12:38:27.000Z,299.77
2022-07-28T12:39:54.000Z,299.46
2022-07-28T12:42:00.000Z,299.46
2022-07-28T12:43:26.000Z,299.84
2022-07-28T12:45:33.000Z,300.09
2022-07-28T12:46:59.000Z,300.21
2022-07-28T12:49:05.000Z,300.21
2022-07-28T12:50:32.000Z,300.09
2022-07-28T12:52:38.000Z,300.15
2022-07-28T12:54:05.000Z,300.4
2022-07-28T12:56:11.000Z,300.52
2022-07-28T12:57:37.000Z,300.4
2022-07-28T12:59:52.000Z,300.52
2022-07-28T13:01:19.000Z,300.59
2022-07-28T13:03:25.000Z,300.46
2022-07-28T13:04:52.000Z,300.65
2022-07-28T13:06:58.000Z,300.71
2022-07-28T13:08:24.000Z,300.71
2022-07-28T13:10:33.000Z,300.59
2022-07-28T13:12:01.000Z,300.9
2022-07-28T13:14:07.000Z,300.96
2022-07-28T13:16:58.000Z,301.09
2022-07-28T13:18:25.000Z,301.21
2022-07-28T13:20:31.000Z,301.4
2022-07-28T13:21:57.000Z,301.34
2022-07-28T13:25:43.000Z,300.84
2022-07-28T13:26:17.000Z,300.84
2022-07-28T13:27:43.000Z,300.77
2022-07-28T13:29:56.000Z,300.52
2022-07-28T13:31:23.000Z,300.46
2022-07-28T13:33:29.000Z,300.59
2022-07-28T13:34:56.000Z,300.59
2022-07-28T13:37:02.000Z,300.77
2022-07-28T13:38:29.000Z,300.71
2022-07-28T13:40:35.000Z,300.65
2022-07-28T13:42:01.000Z,300.46
2022-07-28T13:44:09.000Z,300.15
2022-07-28T13:45:36.000Z,300.15
2022-07-28T13:47:45.000Z,299.9
2022-07-28T13:49:16.000Z,300.02
2022-07-28T13:51:25.000Z,299.96
2022-07-28T13:52:52.000Z,300.15
2022-07-28T13:54:58.000Z,299.84
2022-07-28T13:57:47.000Z,300.15
2022-07-28T13:59:14.000Z,300.34
2022-07-28T14:01:20.000Z,300.09
2022-07-28T14:02:47.000Z,300.27
2022-07-28T14:04:53.000Z,300.27
2022-07-28T14:06:20.000Z,300.21
2022-07-28T14:08:26.000Z,300.15
2022-07-28T14:09:53.000Z,300.21
2022-07-28T14:11:59.000Z,300.09
2022-07-28T14:13:27.000Z,300.21
2022-07-28T14:15:42.000Z,300.21
2022-07-28T14:17:09.000Z,300.4
2022-07-28T14:19:47.000Z,300.46
2022-07-28T14:21:13.000Z,300.21
2022-07-28T14:23:19.000Z,300.46
2022-07-28T14:24:46.000Z,300.65
2022-07-28T14:26:52.000Z,300.84
2022-07-28T14:28:19.000Z,300.71
2022-07-28T14:30:25.000Z,300.59
2022-07-28T14:31:52.000Z,300.52
2022-07-28T14:33:58.000Z,300.59
2022-07-28T14:36:49.000Z,300.52
2022-07-28T14:40:54.000Z,300.77
2022-07-28T14:42:20.000Z,300.9
2022-07-28T14:44:27.000Z,300.77
2022-07-28T14:45:53.000Z,300.59
2022-07-28T14:48:19.000Z,300.46
2022-07-28T14:49:45.000Z,300.15
2022-07-28T14:52:02.000Z,300.21
2022-07-28T14:53:29.000Z,300.21
2022-07-28T14:55:39.000Z,300.21
2022-07-28T14:57:05.000Z,300.34
2022-07-28T14:59:11.000Z,300.4
2022-07-28T15:00:38.000Z,300.34
2022-07-28T15:02:44.000Z,300.4
2022-07-28T15:04:11.000Z,300.46
2022-07-28T15:06:17.000Z,300.27
2022-07-28T15:07:44.000Z,300.27
2022-07-28T15:09:50.000Z,300.21
2022-07-28T15:11:17.000Z,300.27
2022-07-28T15:13:23.000Z,300.34
2022-07-28T15:16:14.000Z,300.09
2022-07-28T15:17:41.000Z,300.27
2022-07-28T15:19:47.000Z,300.15
2022-07-28T15:21:13.000Z,300.15
2022-07-28T15:23:19.000Z,300.09
2022-07-28T15:24:46.000Z,300.15
2022-07-28T15:26:52.000Z,300.09
2022-07-28T15:28:19.000Z,300.02
2022-07-28T15:30:25.000Z,299.96
2022-07-28T15:31:51.000Z,300.02
2022-07-28T15:33:58.000Z,300.02
2022-07-28T15:35:25.000Z,299.96
2022-07-28T15:37:31.000Z,299.9
2022-07-28T15:38:57.000Z,299.77
2022-07-28T15:41:04.000Z,299.84
2022-07-28T15:42:30.000Z,299.77
2022-07-28T15:44:36.000Z,299.9
2022-07-28T15:46:03.000Z,299.71
2022-07-28T15:48:09.000Z,299.71
2022-07-28T15:49:36.000Z,299.59
2022-07-28T15:51:42.000Z,299.27
2022-07-28T15:54:33.000Z,299.34
2022-07-28T15:56:00.000Z,299.15
2022-07-28T15:58:06.000Z,299.21
2022-07-28T15:59:33.000Z,299.21
2022-07-28T16:01:54.000Z,299.21
2022-07-28T16:03:21.000Z,299.15
2022-07-28T16:05:27.000Z,299.09
2022-07-28T16:06:56.000Z,299.09
2022-07-28T16:09:02.000Z,299.21
2022-07-28T16:10:28.000Z,299.15
2022-07-28T16:12:34.000Z,299.02
2022-07-28T16:14:01.000Z,299.15
2022-07-28T16:16:07.000Z,299.15
2022-07-28T16:17:34.000Z,299.15
2022-07-28T16:19:40.000Z,299.09
2022-07-28T16:21:14.000Z,299.09
2022-07-28T16:23:20.000Z,299.02
2022-07-28T16:24:46.000Z,299.02
2022-07-28T16:26:53.000Z,298.9
2022-07-28T16:28:19.000Z,298.9
2022-07-28T16:30:25.000Z,298.77
2022-07-28T16:33:16.000Z,298.84
2022-07-28T16:34:43.000Z,298.84
2022-07-28T16:36:49.000Z,298.77
2022-07-28T16:38:15.000Z,298.65
2022-07-28T16:40:21.000Z,298.71
2022-07-28T16:41:48.000Z,298.71
2022-07-28T16:43:54.000Z,298.59
2022-07-28T16:45:21.000Z,298.52
2022-07-28T16:47:34.000Z,298.52
2022-07-28T16:49:01.000Z,298.59
2022-07-28T16:51:07.000Z,298.52
2022-07-28T16:52:34.000Z,298.52
2022-07-28T16:54:40.000Z,298.4
2022-07-28T16:56:07.000Z,298.46
2022-07-28T16:58:13.000Z,298.46
2022-07-28T16:59:40.000Z,298.46
2022-07-28T17:03:25.000Z,298.46
2022-07-28T17:03:59.000Z,298.46
2022-07-28T17:05:26.000Z,298.52
2022-07-28T17:07:32.000Z,298.4
2022-07-28T17:08:58.000Z,298.34
2022-07-28T17:11:05.000Z,298.27
2022-07-28T17:13:50.000Z,298.21
2022-07-28T17:15:16.000Z,298.27
2022-07-28T17:17:27.000Z,298.15
2022-07-28T17:18:53.000Z,298.09
2022-07-28T17:20:59.000Z,298.15
2022-07-28T17:22:26.000Z,297.96
2022-07-28T17:24:32.000Z,298.02
2022-07-28T17:25:58.000Z,298.02
2022-07-28T17:29:39.000Z,297.9
2022-07-28T17:31:06.000Z,297.9
2022-07-28T17:33:12.000Z,297.77
2022-07-28T17:34:39.000Z,297.71
2022-07-28T17:36:45.000Z,297.65
2022-07-28T17:38:12.000Z,297.59
2022-07-28T17:40:18.000Z,297.59
2022-07-28T17:41:52.000Z,297.59
2022-07-28T17:43:58.000Z,297.52
2022-07-28T17:45:24.000Z,297.46
2022-07-28T17:47:30.000Z,297.4
2022-07-28T17:49:01.000Z,297.34
2022-07-28T17:51:07.000Z,297.27
2022-07-28T17:53:58.000Z,297.21
2022-07-28T17:55:25.000Z,297.27
2022-07-28T17:57:35.000Z,297.15
2022-07-28T17:59:04.000Z,297.21
2022-07-28T18:01:10.000Z,297.15
2022-07-28T18:02:37.000Z,297.15
2022-07-28T18:04:43.000Z,297.02
2022-07-28T18:06:10.000Z,296.96
2022-07-28T18:08:16.000Z,296.9
2022-07-28T18:09:43.000Z,296.84
2022-07-28T18:11:49.000Z,296.84
2022-07-28T18:13:23.000Z,296.84
2022-07-28T18:15:29.000Z,296.71
2022-07-28T18:16:55.000Z,296.65
2022-07-28T18:19:01.000Z,296.52
2022-07-28T18:20:28.000Z,296.52
2022-07-28T18:22:34.000Z,296.46
2022-07-28T18:24:01.000Z,296.46
2022-07-28T18:26:07.000Z,296.46
2022-07-28T18:27:33.000Z,296.4
2022-07-28T18:29:40.000Z,296.34
2022-07-28T18:32:31.000Z,296.15
2022-07-28T18:33:57.000Z,296.15
2022-07-28T18:36:04.000Z,296.09
2022-07-28T18:37:30.000Z,296.09
2022-07-28T18:39:36.000Z,296.02
2022-07-28T18:41:03.000Z,295.96
2022-07-28T18:43:09.000Z,295.84
2022-07-28T18:44:37.000Z,295.9
2022-07-28T18:46:45.000Z,295.84
2022-07-28T18:48:12.000Z,295.77
2022-07-28T18:50:18.000Z,295.77
2022-07-28T18:51:56.000Z,295.65
2022-07-28T18:54:02.000Z,295.27
2022-07-28T18:55:29.000Z,294.9
2022-07-28T18:57:35.000Z,295.02
2022-07-28T18:59:02.000Z,295.09
2022-07-28T19:01:08.000Z,294.9
2022-07-28T19:02:37.000Z,294.84
2022-07-28T19:04:44.000Z,294.9
2022-07-28T19:06:10.000Z,294.84
2022-07-28T19:08:17.000Z,294.77
2022-07-28T19:11:08.000Z,294.4
2022-07-28T19:12:34.000Z,294.4
2022-07-28T19:14:40.000Z,294.27
2022-07-28T19:16:07.000Z,294.34
2022-07-28T19:18:13.000Z,294.27
2022-07-28T19:19:40.000Z,294.21
2022-07-28T19:21:46.000Z,294.09
2022-07-28T19:23:13.000Z,294.21
2022-07-28T19:25:19.000Z,294.21
2022-07-28T19:26:47.000Z,294.09
2022-07-28T19:28:53.000Z,294.09
2022-07-28T19:30:20.000Z,294.21
2022-07-28T19:32:26.000Z,294.21
2022-07-28T19:33:52.000Z,294.15
2022-07-28T19:35:58.000Z,294.15
2022-07-28T19:37:25.000Z,294.02
2022-07-28T19:39:31.000Z,294.02
2022-07-28T19:40:58.000Z,293.96
2022-07-28T19:43:04.000Z,293.9
2022-07-28T19:44:31.000Z,293.9
2022-07-28T19:46:37.000Z,293.84
2022-07-28T19:49:28.000Z,293.59
2022-07-28T19:50:55.000Z,293.59
2022-07-28T19:53:01.000Z,293.71
2022-07-28T19:54:29.000Z,293.84
2022-07-28T19:56:35.000Z,293.84
2022-07-28T19:58:01.000Z,293.84
2022-07-28T20:00:08.000Z,293.84
2022-07-28T20:01:34.000Z,293.77
2022-07-28T20:03:50.000Z,293.84
2022-07-28T20:05:28.000Z,293.65
2022-07-28T20:07:34.000Z,293.46
2022-07-28T20:09:01.000Z,293.46
2022-07-28T20:11:07.000Z,293.59
2022-07-28T20:12:34.000Z,293.46
2022-07-28T20:14:41.000Z,293.46
2022-07-28T20:16:07.000Z,293.4
2022-07-28T20:18:14.000Z,293.52
2022-07-28T20:19:40.000Z,293.59
2022-07-28T20:21:46.000Z,293.65
2022-07-28T20:23:13.000Z,293.59
2022-07-28T20:25:19.000Z,293.52
2022-07-28T20:28:10.000Z,293.59
2022-07-28T20:29:37.000Z,293.59
2022-07-28T20:31:43.000Z,293.59
2022-07-28T20:33:09.000Z,293.59
2022-07-28T20:35:16.000Z,293.52
2022-07-28T20:36:42.000Z,293.52
2022-07-28T20:38:48.000Z,293.59
2022-07-28T20:40:15.000Z,293.52
2022-07-28T20:42:21.000Z,293.52
2022-07-28T20:43:47.000Z,293.46
2022-07-28T20:46:22.000Z,293.4
2022-07-28T20:47:49.000Z,293.34
2022-07-28T20:49:55.000Z,293.34
2022-07-28T20:51:22.000Z,293.34
2022-07-28T20:53:28.000Z,293.27
2022-07-28T20:54:54.000Z,293.27
2022-07-28T20:57:01.000Z,293.15
2022-07-28T20:58:27.000Z,293.15
2022-07-28T21:00:34.000Z,292.9
2022-07-28T21:02:00.000Z,292.77
2022-07-28T21:04:07.000Z,292.52
2022-07-28T21:07:00.000Z,292.34
2022-07-28T21:08:28.000Z,292.15
2022-07-28T21:10:35.000Z,291.84
2022-07-28T21:12:01.000Z,291.77
2022-07-28T21:14:07.000Z,291.9
2022-07-28T21:15:34.000Z,291.96
2022-07-28T21:17:40.000Z,291.77
2022-07-28T21:19:07.000Z,291.65
2022-07-28T21:21:13.000Z,291.34
2022-07-28T21:22:39.000Z,291.27
2022-07-28T21:24:45.000Z,291.34
2022-07-28T21:26:19.000Z,291.46
2022-07-28T21:28:25.000Z,291.34
2022-07-28T21:31:58.000Z,291.21
2022-07-28T21:33:30.000Z,291.09
2022-07-28T21:35:36.000Z,291.02
2022-07-28T21:37:03.000Z,291.02
2022-07-28T21:39:09.000Z,291.02
2022-07-28T21:40:35.000Z,291.02
2022-07-28T21:42:42.000Z,290.84
2022-07-28T21:45:33.000Z,290.9
2022-07-28T21:46:59.000Z,290.84
2022-07-28T21:49:05.000Z,290.9
2022-07-28T21:50:32.000Z,290.84
2022-07-28T21:52:38.000Z,290.65
2022-07-28T21:54:05.000Z,290.71
2022-07-28T21:56:11.000Z,290.59
2022-07-28T21:57:37.000Z,290.59
2022-07-28T21:59:43.000Z,290.52
2022-07-28T22:01:13.000Z,290.46
2022-07-28T22:03:19.000Z,290.52
2022-07-28T22:04:45.000Z,290.46
2022-07-28T22:06:52.000Z,290.34
2022-07-28T22:08:18.000Z,290.4
2022-07-28T22:10:24.000Z,290.4
2022-07-28T22:11:51.000Z,290.46
2022-07-28T22:13:57.000Z,290.4
2022-07-28T22:15:24.000Z,290.27
2022-07-28T22:17:30.000Z,290.21
2022-07-28T22:18:56.000Z,290.15
2022-07-28T22:21:02.000Z,290.15
2022-07-28T22:23:53.000Z,289.9
2022-07-28T22:25:20.000Z,289.77
2022-07-28T22:27:26.000Z,289.71
2022-07-28T22:28:53.000Z,289.84
2022-07-28T22:30:59.000Z,289.9
2022-07-28T22:32:34.000Z,289.9
2022-07-28T22:34:40.000Z,289.77
2022-07-28T22:36:07.000Z,289.77
2022-07-28T22:38:13.000Z,289.71
2022-07-28T22:39:39.000Z,289.77
2022-07-28T22:41:45.000Z,289.84
2022-07-28T22:43:12.000Z,289.9
2022-07-28T22:45:18.000Z,289.9
2022-07-28T22:47:15.000Z,289.84
2022-07-28T22:49:21.000Z,289.52
2022-07-28T22:50:48.000Z,289.52
2022-07-28T22:52:54.000Z,289.65
2022-07-28T22:54:21.000Z,289.65
2022-07-28T22:56:27.000Z,289.71
2022-07-28T22:58:02.000Z,289.52
2022-07-28T23:00:09.000Z,289.34
2022-07-28T23:03:00.000Z,289.34
2022-07-28T23:04:28.000Z,289.27
2022-07-28T23:06:34.000Z,289.4
2022-07-28T23:08:00.000Z,289.65
2022-07-28T23:10:07.000Z,289.34